createdAt,value
2023-05-21T00:00:30.700Z,100100.72
2023-05-21T00:02:59.488Z,100073.47
2023-05-21T00:05:27.003Z,100088.47
2023-05-21T00:07:55.142Z,100077.88
2023-05-21T00:10:22.806Z,100086.75
2023-05-21T00:12:50.255Z,100080.63
2023-05-21T00:15:17.514Z,100057.72
2023-05-21T00:17:46.228Z,100074.47
2023-05-21T00:20:13.858Z,100046.28
2023-05-21T00:22:42.611Z,100028.69
2023-05-21T00:25:12.331Z,100081.53
2023-05-21T00:27:39.529Z,100019.06
2023-05-21T00:30:07.479Z,100066.59
2023-05-21T00:32:37.913Z,100055.16
2023-05-21T00:35:06.380Z,100078.91
2023-05-21T00:37:34.561Z,100074.50
2023-05-21T00:40:03.010Z,100066.59
2023-05-21T00:42:32.679Z,100047.25
2023-05-21T00:45:00.222Z,100069.25
2023-05-21T00:47:29.796Z,100053.34
2023-05-21T00:49:57.654Z,100075.34
2023-05-21T00:52:27.019Z,100077.09
2023-05-21T00:54:55.411Z,100074.44
2023-05-21T00:57:25.599Z,100055.09
2023-05-21T00:59:53.662Z,100065.66
2023-05-21T01:02:24.477Z,100070.94
2023-05-21T01:04:55.399Z,100076.22
2023-05-21T01:07:22.590Z,99998.69
2023-05-21T01:09:49.800Z,100074.44
2023-05-21T01:12:18.099Z,100072.69
2023-05-21T01:14:45.966Z,100076.22
2023-05-21T01:17:14.031Z,100070.97
2023-05-21T01:19:42.893Z,100050.75
2023-05-21T01:22:12.568Z,100063.06
2023-05-21T01:24:39.855Z,100062.16
2023-05-21T01:27:07.831Z,100065.72
2023-05-21T01:29:35.069Z,100073.69
2023-05-21T01:32:12.175Z,100053.44
2023-05-21T01:34:46.488Z,100078.97
2023-05-21T01:37:19.752Z,100077.22
2023-05-21T01:39:53.862Z,100061.34
2023-05-21T01:42:23.902Z,100063.16
2023-05-21T01:44:57.637Z,100068.44
2023-05-21T01:47:29.689Z,100063.19
2023-05-21T01:49:57.324Z,100073.75
2023-05-21T01:52:24.951Z,100070.25
2023-05-21T01:54:54.619Z,100072.84
2023-05-21T01:57:22.097Z,100073.75
2023-05-21T01:59:49.360Z,100061.41
2023-05-21T02:02:16.584Z,100082.53
2023-05-21T02:04:44.334Z,100072.84
2023-05-21T02:07:11.504Z,100069.38
2023-05-21T02:09:38.696Z,100067.63
2023-05-21T02:12:06.414Z,100057.97
2023-05-21T02:14:33.934Z,100072.00
2023-05-21T02:17:01.212Z,100065.84
2023-05-21T02:19:29.315Z,100067.63
2023-05-21T02:21:56.600Z,100063.22
2023-05-21T02:24:24.628Z,100071.16
2023-05-21T02:26:52.639Z,100073.81
2023-05-21T02:29:19.975Z,100069.41
2023-05-21T02:31:47.217Z,100051.78
2023-05-21T02:34:14.571Z,100055.31
2023-05-21T02:36:41.834Z,100059.66
2023-05-21T02:39:09.011Z,100072.00
2023-05-21T02:41:36.315Z,100079.06
2023-05-21T02:44:03.537Z,100068.47
2023-05-21T02:46:33.149Z,100079.03
2023-05-21T02:49:00.480Z,100075.47
2023-05-21T02:51:27.660Z,100078.06
2023-05-21T02:53:54.828Z,100043.72
2023-05-21T02:56:21.926Z,100064.03
2023-05-21T02:58:49.205Z,100080.75
2023-05-21T03:01:17.055Z,100064.06
2023-05-21T03:03:44.288Z,100073.75
2023-05-21T03:06:11.736Z,100035.91
2023-05-21T03:08:39.514Z,100061.47
2023-05-21T03:11:06.788Z,100069.38
2023-05-21T03:13:33.923Z,100070.28
2023-05-21T03:16:01.184Z,100068.50
2023-05-21T03:18:29.221Z,100069.38
2023-05-21T03:20:59.004Z,100079.03
2023-05-21T03:23:27.020Z,100057.91
2023-05-21T03:25:54.681Z,100075.47
2023-05-21T03:28:22.574Z,100089.50
2023-05-21T03:30:51.251Z,100077.19
2023-05-21T03:33:36.480Z,100064.00
2023-05-21T03:36:15.759Z,100049.00
2023-05-21T03:38:43.149Z,100074.53
2023-05-21T03:41:11.112Z,100063.06
2023-05-21T03:43:39.550Z,100075.41
2023-05-21T03:46:06.684Z,100084.19
2023-05-21T03:49:00.015Z,100082.44
2023-05-21T03:51:31.993Z,100078.06
2023-05-21T03:53:59.718Z,100059.63
2023-05-21T03:56:27.086Z,100079.88
2023-05-21T03:58:54.521Z,100075.44
2023-05-21T04:01:22.232Z,100065.78
2023-05-21T04:03:51.844Z,100057.81
2023-05-21T04:06:22.992Z,100062.25
2023-05-21T04:08:50.553Z,100079.91
2023-05-21T04:11:17.687Z,100083.41
2023-05-21T04:13:44.882Z,100082.47
2023-05-21T04:16:14.791Z,100073.66
2023-05-21T04:18:44.879Z,100067.50
2023-05-21T04:21:14.084Z,100012.91
2023-05-21T04:23:41.474Z,100064.84
2023-05-21T04:26:16.393Z,100036.69
2023-05-21T04:28:43.774Z,100067.50
2023-05-21T04:31:13.173Z,100055.22
2023-05-21T04:33:42.342Z,100077.28
2023-05-21T04:36:12.626Z,100066.75
2023-05-21T04:38:42.068Z,100050.06
2023-05-21T04:41:10.962Z,100077.41
2023-05-21T04:43:38.414Z,100075.66
2023-05-21T04:46:06.149Z,100079.19
2023-05-21T04:48:34.299Z,100054.53
2023-05-21T04:51:01.785Z,100064.25
2023-05-21T04:53:29.362Z,100073.94
2023-05-21T04:55:56.515Z,100057.22
2023-05-21T04:58:23.672Z,100070.44
2023-05-21T05:00:52.150Z,100082.75
2023-05-21T05:03:20.599Z,100072.22
2023-05-21T05:05:47.926Z,100050.19
2023-05-21T05:08:16.044Z,100058.13
2023-05-21T05:10:44.002Z,100087.19
2023-05-21T05:13:12.739Z,100089.81
2023-05-21T05:15:40.093Z,100066.91
2023-05-21T05:18:08.756Z,100078.34
2023-05-21T05:20:36.386Z,100066.00
2023-05-21T05:23:03.622Z,100077.44
2023-05-21T05:25:31.008Z,100076.56
2023-05-21T05:27:58.799Z,100073.06
2023-05-21T05:30:25.880Z,100091.56
2023-05-21T05:32:57.112Z,100060.81
2023-05-21T05:35:24.328Z,100078.41
2023-05-21T05:37:51.593Z,100083.69
2023-05-21T05:40:19.195Z,100087.19
2023-05-21T05:42:49.520Z,100079.25
2023-05-21T05:45:17.256Z,100097.72
2023-05-21T05:47:44.404Z,100086.28
2023-05-21T05:50:11.914Z,100058.13
2023-05-21T05:52:39.077Z,100091.59
2023-05-21T05:55:09.106Z,100096.00
2023-05-21T05:57:36.423Z,100089.78
2023-05-21T06:00:10.795Z,100091.56
2023-05-21T06:02:43.009Z,100082.78
2023-05-21T06:05:10.909Z,100100.38
2023-05-21T06:07:41.598Z,100103.91
2023-05-21T06:10:09.295Z,100091.56
2023-05-21T06:12:36.714Z,100102.16
2023-05-21T06:15:04.958Z,100097.72
2023-05-21T06:17:35.954Z,100102.13
2023-05-21T06:20:05.354Z,100098.59
2023-05-21T06:22:37.088Z,100093.31
2023-05-21T06:25:06.391Z,100096.81
2023-05-21T06:27:33.658Z,100088.03
2023-05-21T06:30:02.418Z,100093.28
2023-05-21T06:32:34.201Z,100105.63
2023-05-21T06:35:01.735Z,100093.28
2023-05-21T06:37:32.379Z,100100.31
2023-05-21T06:39:59.483Z,100105.59
2023-05-21T06:42:26.628Z,100103.78
2023-05-21T06:45:13.777Z,100088.81
2023-05-21T06:47:44.205Z,100100.22
2023-05-21T06:50:11.879Z,100103.72
2023-05-21T06:52:39.026Z,100102.00
2023-05-21T06:55:07.318Z,100093.19
2023-05-21T06:57:54.601Z,100116.91
2023-05-21T07:00:21.985Z,100107.19
2023-05-21T07:02:49.385Z,100114.13
2023-05-21T07:05:16.546Z,100108.69
2023-05-21T07:07:43.686Z,100112.91
2023-05-21T07:10:11.221Z,100108.13
2023-05-21T07:12:40.886Z,100112.91
2023-05-21T07:15:09.438Z,100100.31
2023-05-21T07:17:37.742Z,100103.72
2023-05-21T07:20:09.845Z,100081.97
2023-05-21T07:22:39.725Z,100105.69
2023-05-21T07:25:09.092Z,100093.41
2023-05-21T07:27:36.472Z,100096.88
2023-05-21T07:30:04.994Z,100101.06
2023-05-21T07:32:32.894Z,100071.91
2023-05-21T07:35:03.959Z,100099.72
2023-05-21T07:37:33.171Z,100095.03
2023-05-21T07:40:00.668Z,100085.88
2023-05-21T07:42:32.101Z,100092.59
2023-05-21T07:44:59.730Z,100065.59
2023-05-21T07:47:28.143Z,100069.75
2023-05-21T07:49:55.557Z,100098.25
2023-05-21T07:52:22.805Z,100078.53
2023-05-21T07:54:50.236Z,100098.13
2023-05-21T07:57:20.203Z,100098.94
2023-05-21T08:00:10.890Z,100080.31
2023-05-21T08:02:47.343Z,100086.63
2023-05-21T08:05:19.222Z,100082.22
2023-05-21T08:07:46.533Z,100100.63
2023-05-21T08:10:19.159Z,100089.50
2023-05-21T08:12:48.141Z,100098.41
2023-05-21T08:15:15.436Z,100079.63
2023-05-21T08:17:46.072Z,100106.31
2023-05-21T08:20:15.432Z,100097.63
2023-05-21T08:22:44.767Z,100096.63
2023-05-21T08:25:12.543Z,100082.44
2023-05-21T08:27:39.946Z,100085.34
2023-05-21T08:30:08.188Z,100090.78
2023-05-21T08:32:35.707Z,100078.75
2023-05-21T08:35:03.421Z,100080.72
2023-05-21T08:37:46.355Z,100100.84
2023-05-21T08:40:19.537Z,100087.75
2023-05-21T08:42:50.022Z,100090.41
2023-05-21T08:45:38.807Z,100090.66
2023-05-21T08:48:07.815Z,100101.22
2023-05-21T08:50:36.894Z,100097.59
2023-05-21T08:53:24.090Z,100087.59
2023-05-21T08:55:57.383Z,100088.38
2023-05-21T08:58:35.864Z,100114.13
2023-05-21T09:01:05.802Z,100103.78
2023-05-21T09:03:39.489Z,100102.13
2023-05-21T09:06:11.465Z,100096.06
2023-05-21T09:08:46.133Z,100103.16
2023-05-21T09:11:21.927Z,100110.13
2023-05-21T09:13:56.805Z,100114.50
2023-05-21T09:16:35.430Z,100108.31
2023-05-21T09:19:04.621Z,100113.53
2023-05-21T09:21:35.214Z,100111.78
2023-05-21T09:24:14.636Z,100096.16
2023-05-21T09:26:47.079Z,100115.53
2023-05-21T09:29:14.139Z,100102.66
2023-05-21T09:31:47.935Z,100112.50
2023-05-21T09:34:15.598Z,100119.63
2023-05-21T09:36:44.309Z,100125.66
2023-05-21T09:39:16.555Z,100131.88
2023-05-21T09:41:44.902Z,100123.94
2023-05-21T09:44:12.169Z,100107.28
2023-05-21T09:46:41.450Z,100114.38
2023-05-21T09:49:37.225Z,100103.88
2023-05-21T09:52:05.538Z,100139.00
2023-05-21T09:54:35.102Z,100135.50
2023-05-21T09:57:05.385Z,100104.56
2023-05-21T09:59:36.119Z,100132.41
2023-05-21T10:02:03.498Z,100130.41
2023-05-21T10:04:31.933Z,100130.72
2023-05-21T10:07:01.049Z,100119.44
2023-05-21T10:09:30.283Z,100119.47
2023-05-21T10:11:58.751Z,100094.94
2023-05-21T10:14:30.794Z,100120.53
2023-05-21T10:16:59.131Z,100126.91
2023-05-21T10:19:32.444Z,100125.75
2023-05-21T10:22:01.651Z,100107.91
2023-05-21T10:24:29.816Z,100119.09
2023-05-21T10:26:57.512Z,100121.84
2023-05-21T10:29:25.938Z,100106.91
2023-05-21T10:31:53.283Z,100127.88
2023-05-21T10:34:23.250Z,100121.59
2023-05-21T10:36:52.790Z,100100.47
2023-05-21T10:39:22.411Z,100115.47
2023-05-21T10:42:09.168Z,100105.56
2023-05-21T10:45:00.658Z,100127.91
2023-05-21T10:48:05.304Z,100112.47
2023-05-21T10:50:45.137Z,100109.78
2023-05-21T10:53:42.962Z,100110.25
2023-05-21T10:56:30.843Z,100106.31
2023-05-21T10:59:22.336Z,100099.34
2023-05-21T11:01:53.227Z,100104.91
2023-05-21T11:04:27.177Z,100099.94
2023-05-21T11:06:54.847Z,100109.84
2023-05-21T11:09:22.259Z,100111.06
2023-05-21T11:11:54.453Z,100093.38
2023-05-21T11:14:35.487Z,100126.22
2023-05-21T11:17:09.501Z,100123.66
2023-05-21T11:19:53.324Z,100123.47
2023-05-21T11:22:21.914Z,100125.22
2023-05-21T11:24:51.403Z,100105.09
2023-05-21T11:27:34.257Z,100125.22
2023-05-21T11:30:15.230Z,100112.84
2023-05-21T11:33:14.038Z,100126.84
2023-05-21T11:35:51.732Z,100132.63
2023-05-21T11:38:18.836Z,100116.94
2023-05-21T11:40:55.668Z,100099.19
2023-05-21T11:43:23.110Z,100120.97
2023-05-21T11:45:53.051Z,100111.56
2023-05-21T11:48:21.524Z,100119.28
2023-05-21T11:50:48.950Z,100105.03
2023-05-21T11:53:16.178Z,100113.34
2023-05-21T11:55:43.811Z,100099.56
2023-05-21T11:58:14.579Z,100114.38
2023-05-21T12:00:41.991Z,100105.75
2023-05-21T12:03:13.103Z,100101.56
2023-05-21T12:05:50.043Z,100058.25
2023-05-21T12:08:25.631Z,100106.06
2023-05-21T12:10:59.222Z,100092.88
2023-05-21T12:13:26.720Z,100094.28
2023-05-21T12:15:54.745Z,100081.44
2023-05-21T12:18:22.359Z,100098.25
2023-05-21T12:20:52.268Z,100106.91
2023-05-21T12:23:21.144Z,100100.28
2023-05-21T12:25:48.214Z,100100.91
2023-05-21T12:28:16.202Z,100104.31
2023-05-21T12:30:43.415Z,100098.78
2023-05-21T12:33:12.260Z,100106.63
2023-05-21T12:35:39.502Z,100092.56
2023-05-21T12:38:10.095Z,100097.16
2023-05-21T12:40:39.290Z,100108.22
2023-05-21T12:43:07.576Z,100101.66
2023-05-21T12:45:34.778Z,100104.16
2023-05-21T12:48:02.759Z,100096.66
2023-05-21T12:50:30.114Z,100114.09
2023-05-21T12:52:58.602Z,100106.50
2023-05-21T12:55:28.914Z,100113.00
2023-05-21T12:58:09.289Z,100101.53
2023-05-21T13:00:37.924Z,100090.91
2023-05-21T13:03:06.736Z,100081.28
2023-05-21T13:05:34.695Z,100111.78
2023-05-21T13:08:10.806Z,100097.91
2023-05-21T13:10:38.616Z,100123.91
2023-05-21T13:13:08.389Z,100114.75
2023-05-21T13:15:35.592Z,100119.91
2023-05-21T13:18:03.115Z,100094.13
2023-05-21T13:20:30.587Z,100121.59
2023-05-21T13:23:04.716Z,100095.09
2023-05-21T13:25:35.554Z,100120.78
2023-05-21T13:28:08.896Z,100123.44
2023-05-21T13:30:36.893Z,100119.34
2023-05-21T13:33:04.477Z,100103.38
2023-05-21T13:35:32.384Z,100136.16
2023-05-21T13:37:59.535Z,100123.66
2023-05-21T13:40:27.304Z,100104.72
2023-05-21T13:42:54.459Z,100120.47
2023-05-21T13:45:21.922Z,100110.47
2023-05-21T13:47:56.759Z,100122.56
2023-05-21T13:50:24.640Z,100109.28
2023-05-21T13:52:51.875Z,100114.13
2023-05-21T13:55:19.221Z,100101.31
2023-05-21T13:57:47.748Z,100101.84
2023-05-21T14:00:18.861Z,100110.00
2023-05-21T14:02:46.032Z,100093.41
2023-05-21T14:05:21.279Z,100108.88
2023-05-21T14:07:48.573Z,100112.06
2023-05-21T14:10:15.988Z,100114.63
2023-05-21T14:12:43.190Z,100112.25
2023-05-21T14:15:10.848Z,100091.63
2023-05-21T14:17:40.745Z,100099.69
2023-05-21T14:20:08.664Z,100111.50
2023-05-21T14:22:35.991Z,100103.88
2023-05-21T14:25:03.744Z,100104.97
2023-05-21T14:27:31.582Z,100108.78
2023-05-21T14:29:58.554Z,100117.94
2023-05-21T14:32:25.871Z,100108.47
2023-05-21T14:34:52.981Z,100105.88
2023-05-21T14:37:20.039Z,100110.53
2023-05-21T14:39:47.253Z,100111.56
2023-05-21T14:42:14.366Z,100092.38
2023-05-21T14:44:41.642Z,100071.47
2023-05-21T14:47:08.794Z,100098.72
2023-05-21T14:49:35.946Z,100100.41
2023-05-21T14:52:02.992Z,100110.94
2023-05-21T14:54:30.122Z,100102.97
2023-05-21T14:56:57.275Z,100094.84
2023-05-21T14:59:24.366Z,100101.06
2023-05-21T15:01:51.661Z,100083.47
2023-05-21T15:04:21.801Z,100091.22
2023-05-21T15:06:48.930Z,100102.59
2023-05-21T15:09:16.147Z,100096.41
2023-05-21T15:11:44.860Z,100101.00
2023-05-21T15:14:12.685Z,100099.44
2023-05-21T15:16:39.862Z,100070.53
2023-05-21T15:19:07.041Z,100095.16
2023-05-21T15:21:34.239Z,100090.91
2023-05-21T15:24:01.461Z,100067.47
2023-05-21T15:26:28.716Z,100105.38
2023-05-21T15:28:56.008Z,100075.69
2023-05-21T15:31:23.146Z,100095.88
2023-05-21T15:33:50.438Z,100095.38
2023-05-21T15:36:17.722Z,100097.16
2023-05-21T15:38:44.790Z,100076.13
2023-05-21T15:41:11.940Z,100099.09
2023-05-21T15:43:39.192Z,100097.38
2023-05-21T15:46:06.422Z,100092.03
2023-05-21T15:48:33.556Z,100097.22
2023-05-21T15:51:00.834Z,100097.28
2023-05-21T15:53:28.055Z,100096.47
2023-05-21T15:55:55.784Z,100095.69
2023-05-21T15:58:22.844Z,100097.41
2023-05-21T16:00:50.156Z,100090.41
2023-05-21T16:03:17.518Z,100090.59
2023-05-21T16:06:11.405Z,100106.38
2023-05-21T16:08:38.524Z,100095.81
2023-05-21T16:11:05.869Z,100106.38
2023-05-21T16:13:33.070Z,100106.41
2023-05-21T16:16:00.152Z,100113.44
2023-05-21T16:18:27.353Z,100106.50
2023-05-21T16:21:00.477Z,100111.00
2023-05-21T16:23:27.544Z,100114.72
2023-05-21T16:25:54.680Z,100121.03
2023-05-21T16:28:24.548Z,100104.44
2023-05-21T16:30:52.476Z,100085.31
2023-05-21T16:33:19.729Z,100097.78
2023-05-21T16:35:46.877Z,100105.75
2023-05-21T16:38:13.890Z,100107.31
2023-05-21T16:40:43.408Z,100093.25
2023-05-21T16:43:10.490Z,100109.06
2023-05-21T16:45:43.390Z,100112.59
2023-05-21T16:48:12.176Z,100088.00
2023-05-21T16:50:40.264Z,100100.34
2023-05-21T16:53:08.759Z,100072.25
2023-05-21T16:55:37.877Z,100113.63
2023-05-21T16:58:06.814Z,100112.06
2023-05-21T17:00:34.402Z,100105.16
2023-05-21T17:03:01.768Z,100113.19
2023-05-21T17:05:29.682Z,100107.06
2023-05-21T17:07:56.801Z,100107.19
2023-05-21T17:10:25.305Z,100092.38
2023-05-21T17:12:52.931Z,100104.59
2023-05-21T17:15:20.094Z,100104.78
2023-05-21T17:17:47.273Z,100107.56
2023-05-21T17:20:14.696Z,100122.72
2023-05-21T17:22:41.961Z,100126.41
2023-05-21T17:25:09.730Z,100097.41
2023-05-21T17:27:36.988Z,100116.81
2023-05-21T17:30:05.451Z,100119.50
2023-05-21T17:32:34.325Z,100112.44
2023-05-21T17:35:01.518Z,100109.03
2023-05-21T17:37:31.409Z,100132.81
2023-05-21T17:39:58.603Z,100114.44
2023-05-21T17:42:25.753Z,100128.47
2023-05-21T17:44:53.940Z,100125.88
2023-05-21T17:47:21.061Z,100127.72
2023-05-21T17:49:48.158Z,100128.69
2023-05-21T17:52:15.409Z,100112.97
2023-05-21T17:54:42.582Z,100120.03
2023-05-21T17:57:09.724Z,100122.72
2023-05-21T17:59:40.398Z,100124.53
2023-05-21T18:02:08.008Z,100115.78
2023-05-21T18:04:35.310Z,100124.63
2023-05-21T18:07:02.548Z,100130.84
2023-05-21T18:09:29.674Z,100115.91
2023-05-21T18:11:58.256Z,100129.16
2023-05-21T18:14:25.457Z,100136.28
2023-05-21T18:16:52.712Z,100133.66
2023-05-21T18:19:19.882Z,100114.34
2023-05-21T18:21:48.348Z,100129.34
2023-05-21T18:24:16.104Z,100136.44
2023-05-21T18:26:43.781Z,100118.03
2023-05-21T18:29:12.103Z,100136.50
2023-05-21T18:31:39.446Z,100124.25
2023-05-21T18:34:06.512Z,100119.88
2023-05-21T18:36:39.082Z,100138.38
2023-05-21T18:39:07.795Z,100141.06
2023-05-21T18:41:35.026Z,100137.56
2023-05-21T18:44:02.230Z,100124.38
2023-05-21T18:46:29.760Z,100142.00
2023-05-21T18:48:56.932Z,100140.28
2023-05-21T18:51:24.134Z,100141.19
2023-05-21T18:53:51.279Z,100129.75
2023-05-21T18:56:18.497Z,100117.47
2023-05-21T18:58:45.856Z,100133.28
2023-05-21T19:01:13.165Z,100132.47
2023-05-21T19:03:40.302Z,100139.56
2023-05-21T19:06:08.671Z,100122.00
2023-05-21T19:08:36.025Z,100146.63
2023-05-21T19:11:03.495Z,100121.94
2023-05-21T19:13:30.619Z,100142.16
2023-05-21T19:15:58.743Z,100149.19
2023-05-21T19:18:31.782Z,100146.53
2023-05-21T19:21:00.639Z,100145.63
2023-05-21T19:23:28.299Z,100132.47
2023-05-21T19:25:55.695Z,100134.16
2023-05-21T19:28:22.764Z,100131.47
2023-05-21T19:30:53.693Z,100116.50
2023-05-21T19:33:20.953Z,100138.50
2023-05-21T19:35:48.367Z,100139.38
2023-05-21T19:38:15.782Z,100136.75
2023-05-21T19:40:43.339Z,100131.50
2023-05-21T19:43:10.449Z,100104.31
2023-05-21T19:45:37.571Z,100150.94
2023-05-21T19:48:07.424Z,100083.22
2023-05-21T19:50:34.785Z,100124.50
2023-05-21T19:53:02.233Z,100139.50
2023-05-21T19:55:33.388Z,100128.91
2023-05-21T19:58:00.504Z,100139.50
2023-05-21T20:00:28.834Z,100141.31
2023-05-21T20:02:56.436Z,100129.88
2023-05-21T20:05:23.744Z,100127.22
2023-05-21T20:07:51.030Z,100128.97
2023-05-21T20:10:18.202Z,100135.13
2023-05-21T20:12:45.464Z,100130.72
2023-05-21T20:15:14.055Z,100125.50
2023-05-21T20:17:43.500Z,100140.47
2023-05-21T20:20:12.587Z,100145.75
2023-05-21T20:22:39.586Z,100143.13
2023-05-21T20:25:07.573Z,100146.66
2023-05-21T20:27:35.787Z,100124.72
2023-05-21T20:30:02.906Z,100141.50
2023-05-21T20:32:32.403Z,100120.44
2023-05-21T20:35:04.003Z,100146.78
2023-05-21T20:37:33.144Z,100128.25
2023-05-21T20:40:04.895Z,100137.03
2023-05-21T20:42:35.062Z,100127.38
2023-05-21T20:45:03.296Z,100133.53
2023-05-21T20:47:34.433Z,100146.72
2023-05-21T20:50:02.984Z,100140.53
2023-05-21T20:52:32.402Z,100142.28
2023-05-21T20:54:59.886Z,100148.47
2023-05-21T20:57:28.529Z,100123.88
2023-05-21T20:59:56.338Z,100145.84
2023-05-21T21:02:23.652Z,100150.28
2023-05-21T21:04:50.948Z,100112.41
2023-05-21T21:07:18.969Z,100150.22
2023-05-21T21:09:47.412Z,100154.66
2023-05-21T21:12:25.855Z,100145.88
2023-05-21T21:14:54.317Z,100155.56
2023-05-21T21:17:21.543Z,100154.72
2023-05-21T21:19:48.739Z,100156.56
2023-05-21T21:22:16.452Z,100154.84
2023-05-21T21:24:43.863Z,100080.97
2023-05-21T21:27:11.189Z,100088.88
2023-05-21T21:29:38.482Z,100139.88
2023-05-21T21:32:06.279Z,100141.63
2023-05-21T21:34:33.499Z,100146.06
2023-05-21T21:37:00.813Z,100139.91
2023-05-21T21:39:27.987Z,100137.28
2023-05-21T21:41:55.117Z,100134.63
2023-05-21T21:44:22.219Z,100139.09
2023-05-21T21:46:49.715Z,100147.91
2023-05-21T21:49:17.667Z,100121.50
2023-05-21T21:51:45.597Z,100140.91
2023-05-21T21:54:13.067Z,100118.84
2023-05-21T21:56:40.249Z,100093.34
2023-05-21T21:59:07.655Z,100121.47
2023-05-21T22:01:36.269Z,100127.66
2023-05-21T22:04:03.777Z,100140.88
2023-05-21T22:06:31.456Z,100140.88
2023-05-21T22:08:58.909Z,100125.00
2023-05-21T22:11:27.168Z,100133.81
2023-05-21T22:13:54.521Z,100105.63
2023-05-21T22:16:21.810Z,100126.78
2023-05-21T22:18:50.245Z,100126.78
2023-05-21T22:21:18.562Z,100121.50
2023-05-21T22:23:45.793Z,100097.69
2023-05-21T22:26:13.148Z,100116.22
2023-05-21T22:28:40.479Z,100114.44
2023-05-21T22:31:07.896Z,100111.84
2023-05-21T22:33:35.330Z,100122.41
2023-05-21T22:36:02.700Z,100131.22
2023-05-21T22:38:30.132Z,100113.59
2023-05-21T22:40:58.475Z,100122.41
2023-05-21T22:43:26.342Z,100096.88
2023-05-21T22:45:53.607Z,100115.34
2023-05-21T22:48:22.153Z,100107.47
2023-05-21T22:50:50.435Z,100100.41
2023-05-21T22:53:17.858Z,100109.22
2023-05-21T22:55:45.042Z,100093.34
2023-05-21T22:58:12.097Z,100110.06
2023-05-21T23:00:39.444Z,100091.63
2023-05-21T23:03:06.773Z,100110.97
2023-05-21T23:05:34.272Z,100076.66
2023-05-21T23:08:01.457Z,100113.63
2023-05-21T23:10:28.606Z,100099.53
2023-05-21T23:12:56.041Z,100112.72
2023-05-21T23:15:24.499Z,100110.97
2023-05-21T23:17:51.690Z,100091.59
2023-05-21T23:20:18.917Z,100093.38
2023-05-21T23:22:46.035Z,100107.44
2023-05-21T23:25:13.201Z,100069.59
2023-05-21T23:27:40.377Z,100088.97
2023-05-21T23:30:08.095Z,100096.88
2023-05-21T23:32:35.383Z,100095.97
2023-05-21T23:35:02.600Z,100103.00
2023-05-21T23:37:32.626Z,100109.19
2023-05-21T23:39:59.706Z,100114.41
2023-05-21T23:42:27.137Z,100133.72
2023-05-21T23:44:54.281Z,100131.97
2023-05-21T23:47:21.421Z,100095.03
2023-05-21T23:49:48.590Z,100075.66
2023-05-21T23:52:18.389Z,100114.41
2023-05-21T23:54:45.555Z,100108.22
2023-05-21T23:57:13.457Z,100054.44
2023-05-21T23:59:40.807Z,100121.44
